Time;durP1;ratioP1;P1;durP2;ratioP2;P2;SDS_P1;SDS_P2;PMS_P1;PMS_P2;Temp;Humidity;BMP_temperature;BMP_pressure;BME280_temperature;BME280_humidity;BME280_pressure;Samples;Min_cycle;Max_cycle;Signal;HPM_P1;HPM_P2
2021/12/04 06:02:04;;;;;;;3.22;1.33;;;;;;;-1.79;45.02;91960.59;6219092;22;20024;-76
2021/12/04 06:04:31;;;;;;;1.70;1.13;;;;;;;-1.79;45.13;91955.47;6240988;23;20012;-75
2021/12/04 06:06:57;;;;;;;2.78;1.27;;;;;;;-1.89;46.29;91946.56;6213375;22;20037;-75
2021/12/04 06:09:25;;;;;;;1.23;1.00;;;;;;;-1.78;45.87;91954.44;6214276;23;20061;-74
2021/12/04 06:11:50;;;;;;;3.03;1.63;;;;;;;-1.80;45.80;91943.63;6212359;22;19996;-74
2021/12/04 06:14:16;;;;;;;1.42;1.13;;;;;;;-1.76;45.91;91955.78;6212522;23;20068;-74
2021/12/04 06:16:42;;;;;;;2.80;1.30;;;;;;;-1.88;45.29;91942.97;6213123;23;20008;-75
2021/12/04 06:19:26;;;;;;;1.67;1.25;;;;;;;-1.79;45.56;91960.59;6188149;23;20016;-74
2021/12/04 06:24:51;;;;;;;3.35;1.60;;;;;;;-1.78;45.57;91936.50;6213425;22;20027;-75
2021/12/04 06:27:16;;;;;;;2.03;1.30;;;;;;;-1.80;45.65;91948.75;6240172;23;20342;-74
2021/12/04 06:30:02;;;;;;;2.50;1.35;;;;;;;-1.81;46.36;91947.22;6212640;23;20031;-74
2021/12/04 06:32:28;;;;;;;2.08;1.30;;;;;;;-1.84;46.26;91945.09;6186953;22;20020;-74
2021/12/04 06:34:53;;;;;;;2.05;1.50;;;;;;;-1.85;46.41;91935.81;6213169;23;20334;-74
2021/12/04 06:37:20;;;;;;;2.70;1.40;;;;;;;-1.89;46.21;91950.91;6239555;23;20016;-74
2021/12/04 06:39:45;;;;;;;2.38;1.27;;;;;;;-1.90;45.40;91939.84;6188369;23;20012;-74
2021/12/04 06:42:11;;;;;;;2.03;1.38;;;;;;;-1.93;45.75;91940.28;6213068;22;20481;-74
2021/12/04 06:44:39;;;;;;;2.45;1.23;;;;;;;-1.92;45.83;91946.97;6213823;23;20031;-74
2021/12/04 06:47:04;;;;;;;3.33;1.65;;;;;;;-1.92;44.63;91939.28;6213133;23;20096;-74
2021/12/04 06:49:34;;;;;;;1.45;1.17;;;;;;;-1.93;44.71;91939.53;6213284;23;20074;-75
2021/12/04 06:52:04;;;;;;;2.17;1.20;;;;;;;-1.89;43.78;91931.16;6213887;22;20394;-75
2021/12/04 06:54:35;;;;;;;4.22;1.75;;;;;;;-1.85;43.49;91930.69;6215154;23;20485;-76
2021/12/04 06:57:03;;;;;;;2.42;1.42;;;;;;;-1.81;44.34;91924.13;6240499;23;20016;-75
2021/12/04 06:59:32;;;;;;;2.17;1.33;;;;;;;-1.79;44.44;91924.69;6214128;23;20019;-74
2021/12/04 07:02:04;;;;;;;2.40;1.27;;;;;;;-1.75;44.33;91916.31;6240501;22;20016;-73
2021/12/04 07:04:34;;;;;;;1.92;1.20;;;;;;;-1.67;43.88;91917.72;6188044;22;20064;-74
2021/12/04 07:07:01;;;;;;;1.92;1.50;;;;;;;-1.56;42.80;91914.38;6239478;23;20012;-76
2021/12/04 07:12:49;;;;;;;1.55;1.27;;;;;;;-1.11;42.25;91918.06;6213648;22;20069;-74
2021/12/04 07:15:14;;;;;;;2.53;1.40;;;;;;;-0.47;40.62;91907.63;6213741;22;20004;-74
2021/12/04 07:17:40;;;;;;;5.25;1.83;;;;;;;1.39;38.40;91915.63;6188031;23;20012;-75
2021/12/04 07:20:08;;;;;;;3.60;1.60;;;;;;;3.47;34.46;91905.97;6240571;23;20335;-74
2021/12/04 07:23:11;;;;;;;1.90;1.15;;;;;;;4.29;32.00;91903.38;6239735;22;20391;-75
2021/12/04 07:25:37;;;;;;;;;;;;;;;4.41;31.88;91907.53;6238819;22;20004;-75
2021/12/04 07:28:21;;;;;;;2.75;1.40;;;;;;;4.01;32.29;91919.47;6240013;23;19904;-75
2021/12/04 07:30:47;;;;;;;3.25;1.52;;;;;;;3.81;33.01;91920.25;6238521;22;20016;-75
2021/12/04 07:33:12;;;;;;;2.95;1.63;;;;;;;3.49;34.61;91918.63;6185851;23;20004;-75
2021/12/04 07:35:38;;;;;;;3.35;1.80;;;;;;;2.86;35.89;91910.94;6162221;23;20022;-75
2021/12/04 07:38:04;;;;;;;4.78;1.58;;;;;;;2.40;36.02;91908.16;6210943;23;20335;-75
2021/12/04 07:40:30;;;;;;;2.65;1.60;;;;;;;2.10;36.63;91914.69;6209502;22;20038;-77
2021/12/04 07:42:56;;;;;;;2.67;1.40;;;;;;;1.95;37.78;91909.41;6212612;23;20030;-78
2021/12/04 07:45:21;;;;;;;2.75;1.45;;;;;;;2.14;37.99;91920.13;6238294;23;20459;-77
2021/12/04 07:47:47;;;;;;;2.55;1.55;;;;;;;2.56;37.91;91911.59;6237359;23;20479;-77
2021/12/04 07:50:14;;;;;;;3.03;1.60;;;;;;;2.68;37.65;91907.03;6238133;22;20036;-77
2021/12/04 07:52:40;;;;;;;2.97;1.58;;;;;;;2.92;37.42;91897.03;6237781;23;20374;-77
2021/12/04 07:55:08;;;;;;;2.67;1.52;;;;;;;3.10;37.68;91899.16;6238763;23;20008;-77
2021/12/04 07:57:34;;;;;;;2.88;1.65;;;;;;;3.42;36.53;91893.00;6213926;23;20000;-78
2021/12/04 08:00:00;;;;;;;4.13;1.60;;;;;;;3.79;35.97;91907.56;6239775;23;20037;-77
2021/12/04 08:02:26;;;;;;;3.22;1.70;;;;;;;3.54;35.78;91896.16;6213549;22;20430;-77
2021/12/04 08:04:52;;;;;;;4.43;1.85;;;;;;;3.19;36.19;91909.00;6213977;23;20016;-77
2021/12/04 08:07:18;;;;;;;2.55;1.55;;;;;;;2.95;36.71;91909.47;6214819;23;20069;-78
2021/12/04 08:09:43;;;;;;;2.80;1.50;;;;;;;2.73;36.89;91909.63;6214607;23;20384;-79
2021/12/04 08:12:10;;;;;;;4.28;1.80;;;;;;;2.56;37.71;91909.00;6241543;22;20060;-78
2021/12/04 08:14:38;;;;;;;3.60;1.50;;;;;;;2.39;38.73;91909.19;6240684;23;20091;-76
2021/12/04 08:17:04;;;;;;;3.88;1.80;;;;;;;2.28;38.41;91906.53;6239081;23;20339;-78
2021/12/04 08:19:30;;;;;;;3.72;1.48;;;;;;;2.31;39.11;91907.84;6241113;23;20101;-77
2021/12/04 08:21:55;;;;;;;3.45;1.83;;;;;;;2.34;38.60;91907.34;6164691;22;20008;-78
2021/12/04 08:24:21;;;;;;;3.08;1.70;;;;;;;2.74;37.68;91902.63;6214588;22;20012;-79
2021/12/04 08:26:47;;;;;;;4.13;1.60;;;;;;;3.05;36.80;91896.56;6242251;23;20012;-78
2021/12/04 08:29:13;;;;;;;3.65;1.70;;;;;;;3.66;36.56;91898.47;6189001;23;20008;-79
2021/12/04 08:31:39;;;;;;;2.95;1.50;;;;;;;4.93;33.79;91898.56;6240497;22;20350;-79
2021/12/04 08:34:06;;;;;;;2.75;1.55;;;;;;;5.79;31.15;91889.53;6239874;23;20012;-78
2021/12/04 08:36:34;;;;;;;2.97;1.35;;;;;;;6.92;28.73;91877.38;6188435;23;20063;-78
2021/12/04 08:39:03;;;;;;;3.13;1.40;;;;;;;7.54;27.90;91874.75;6190046;23;20455;-77
2021/12/04 08:41:29;;;;;;;2.67;1.40;;;;;;;7.13;28.61;91872.69;6240777;22;20000;-78
2021/12/04 08:43:55;;;;;;;4.43;1.75;;;;;;;6.92;28.56;91869.56;6212962;23;20039;-78
2021/12/04 08:46:22;;;;;;;4.95;1.90;;;;;;;7.26;28.11;91874.59;6189764;23;20000;-78
2021/12/04 08:48:54;;;;;;;5.00;1.70;;;;;;;8.11;27.19;91876.25;6214711;23;20137;-77
2021/12/04 08:51:22;;;;;;;3.90;1.73;;;;;;;8.26;26.83;91877.84;6240584;22;20016;-78
2021/12/04 08:54:25;;;;;;;3.97;1.58;;;;;;;8.11;26.05;91875.50;6241908;23;20335;-78
2021/12/04 08:56:51;;;;;;;4.07;1.90;;;;;;;7.71;26.72;91873.22;6215427;23;20004;-78
2021/12/04 08:59:18;;;;;;;2.95;1.52;;;;;;;7.53;26.64;91875.81;6215693;23;20001;-78
2021/12/04 09:01:44;;;;;;;3.75;1.75;;;;;;;7.83;26.85;91867.56;6241350;22;20351;-77
2021/12/04 09:04:15;;;;;;;4.40;2.45;;;;;;;8.05;27.33;91866.19;6188975;23;20038;-77
2021/12/04 09:06:42;;;;;;;7.00;2.20;;;;;;;8.85;26.34;91877.38;6213838;23;20012;-77
2021/12/04 09:09:10;;;;;;;8.65;4.90;;;;;;;9.32;25.23;91872.78;6214894;23;20383;-78
2021/12/04 09:11:43;;;;;;;8.82;4.72;;;;;;;8.79;29.38;91868.88;6214992;22;20040;-78
2021/12/04 09:14:10;;;;;;;5.20;2.42;;;;;;;8.72;27.88;91869.25;6240386;23;20008;-78
2021/12/04 09:16:39;;;;;;;22.95;13.88;;;;;;;7.82;27.95;91865.25;6240604;23;19996;-77
2021/12/04 09:19:05;;;;;;;6.32;3.28;;;;;;;7.32;30.34;91863.09;6212152;22;20016;-77
2021/12/04 09:21:36;;;;;;;24.95;11.05;;;;;;;6.54;33.23;91859.81;6238971;22;20423;-78
2021/12/04 09:24:14;;;;;;;8.52;4.43;;;;;;;6.51;33.05;91862.97;6239585;23;20027;-77
2021/12/04 09:32:47;;;;;;;9.63;4.45;;;;;;;6.14;34.22;91859.16;6237673;22;20016;-77
2021/12/04 10:25:02;;;;;;;3.90;1.70;;;;;;;5.49;34.25;91794.44;6241718;23;20012;-77
2021/12/04 10:35:11;;;;;;;3.03;1.70;;;;;;;6.65;33.91;91769.47;6239663;23;20008;-78
2021/12/04 10:38:01;;;;;;;4.32;1.77;;;;;;;7.25;32.74;91766.31;6240377;23;20012;-76
2021/12/04 10:40:39;;;;;;;3.63;1.70;;;;;;;7.38;31.36;91759.63;6243134;22;20058;-78
2021/12/04 10:43:11;;;;;;;5.13;2.30;;;;;;;7.23;31.54;91753.59;6241722;23;20012;-80
2021/12/04 10:45:41;;;;;;;4.43;1.77;;;;;;;6.81;33.55;91752.59;6216641;23;20008;-79
2021/12/04 10:48:12;;;;;;;3.97;1.95;;;;;;;6.70;34.88;91747.81;6240172;23;20399;-79
2021/12/04 10:53:30;;;;;;;4.38;1.90;;;;;;;5.70;34.34;91744.97;6239784;22;20035;-77
2021/12/04 11:01:37;;;;;;;94.60;33.95;;;;;;;5.41;33.18;91730.16;6187285;22;20467;-79
2021/12/04 11:04:17;;;;;;;68.95;18.05;;;;;;;5.81;34.04;91726.41;6216175;23;20089;-78
2021/12/04 11:37:08;;;;;;;4.55;2.28;;;;;;;7.03;33.51;91653.16;6255544;22;20087;-80
2021/12/04 11:47:17;;;;;;;4.15;2.10;;;;;;;7.46;31.30;91641.81;6222019;23;20012;-79
2021/12/04 11:49:43;;;;;;;4.32;2.22;;;;;;;7.48;32.19;91639.69;6251650;23;20003;-78
2021/12/04 11:52:17;;;;;;;3.78;1.83;;;;;;;7.45;31.81;91637.63;6222810;22;20016;-79
2021/12/04 11:54:46;;;;;;;3.42;1.95;;;;;;;7.09;32.03;91622.63;6247281;23;20052;-77
2021/12/04 11:57:13;;;;;;;4.68;2.20;;;;;;;6.68;32.89;91618.03;6250289;23;19996;-79
2021/12/04 11:59:41;;;;;;;3.95;2.10;;;;;;;6.50;34.10;91614.41;6224185;23;20073;-79
2021/12/04 12:02:10;;;;;;;5.50;2.53;;;;;;;6.50;34.42;91606.59;6255706;22;20019;-79
2021/12/04 12:04:44;;;;;;;5.25;2.13;;;;;;;6.77;35.28;91602.56;6254650;23;20060;-79
2021/12/04 12:07:11;;;;;;;4.60;1.90;;;;;;;6.70;34.66;91597.72;6248560;23;20075;-78
2021/12/04 12:09:39;;;;;;;4.32;2.00;;;;;;;6.04;35.48;91589.03;6245364;23;20442;-78
2021/12/04 12:12:07;;;;;;;4.30;2.05;;;;;;;6.65;34.50;91582.97;6240365;22;20507;-77
2021/12/04 12:14:40;;;;;;;4.78;2.03;;;;;;;6.25;36.23;91579.13;6186634;23;20012;-77
2021/12/04 12:17:08;;;;;;;4.30;1.98;;;;;;;6.24;35.61;91578.38;6244752;23;20008;-77
2021/12/04 12:19:42;;;;;;;5.32;2.03;;;;;;;5.82;35.96;91572.13;6244663;23;20327;-77
2021/12/04 12:22:46;;;;;;;3.83;2.20;;;;;;;5.47;36.31;91583.72;6217643;22;20012;-78
2021/12/04 12:25:22;;;;;;;6.53;2.20;;;;;;;5.32;36.37;91570.88;6245157;22;20328;-77
2021/12/04 12:31:48;;;;;;;4.53;2.13;;;;;;;5.47;36.51;91573.31;6243676;23;20008;-77
2021/12/04 12:36:20;;;;;;;7.60;3.20;;;;;;;6.21;33.94;91550.34;6244204;23;20000;-78
2021/12/04 12:39:01;;;;;;;4.65;2.20;;;;;;;6.03;33.41;91549.31;6244861;23;20012;-78
2021/12/04 12:41:38;;;;;;;4.13;2.10;;;;;;;6.21;31.44;91537.38;6244441;22;20016;-77
2021/12/04 12:44:09;;;;;;;3.15;1.58;;;;;;;6.40;29.42;91544.38;6245673;23;20015;-78
2021/12/04 12:46:52;;;;;;;4.13;2.13;;;;;;;6.31;32.20;91546.84;6245678;23;20032;-78
2021/12/04 12:49:20;;;;;;;3.25;1.75;;;;;;;6.14;31.02;91539.53;6245265;23;20008;-78
2021/12/04 12:51:53;;;;;;;5.72;2.45;;;;;;;6.28;31.29;91542.19;6244484;22;20000;-78
2021/12/04 12:54:30;;;;;;;4.53;2.08;;;;;;;6.27;31.14;91532.09;6244133;23;20012;-78
2021/12/04 12:57:12;;;;;;;3.60;1.80;;;;;;;6.31;29.63;91525.28;6217205;23;20012;-78
2021/12/04 13:13:51;;;;;;;14.13;4.80;;;;;;;4.46;39.62;91508.38;6243279;22;20038;-78
2021/12/04 13:16:21;;;;;;;6.55;2.65;;;;;;;4.51;39.58;91503.94;6244194;23;19996;-77
2021/12/04 13:18:54;;;;;;;8.10;2.80;;;;;;;4.26;39.79;91507.53;6242647;23;20008;-78
2021/12/04 13:21:20;;;;;;;5.68;2.50;;;;;;;4.46;40.05;91508.38;6242371;22;20012;-78
2021/12/04 13:23:54;;;;;;;7.03;2.13;;;;;;;4.57;39.89;91499.47;6242783;23;20458;-78
2021/12/04 13:26:28;;;;;;;9.43;3.22;;;;;;;4.58;38.84;91490.69;6216966;23;20027;-77
2021/12/04 13:28:55;;;;;;;7.00;3.20;;;;;;;4.61;40.10;91494.53;6212315;23;20392;-77
2021/12/04 13:31:20;;;;;;;6.05;3.28;;;;;;;4.67;40.03;91496.03;6238488;22;20004;-77
2021/12/04 13:33:50;;;;;;;5.22;2.35;;;;;;;4.70;37.61;91492.91;6239021;23;20012;-77
2021/12/04 13:36:20;;;;;;;23.88;9.02;;;;;;;4.68;37.73;91493.16;6238487;23;20016;-77
2021/12/04 13:38:47;;;;;;;14.23;5.65;;;;;;;4.67;36.38;91486.44;6239412;23;20018;-79
2021/12/04 13:41:13;;;;;;;7.32;2.53;;;;;;;4.57;41.06;91486.53;6242980;22;20014;-76
2021/12/04 13:43:40;;;;;;;7.47;2.33;;;;;;;4.31;41.13;91486.75;6243498;23;20044;-78
2021/12/04 13:46:06;;;;;;;5.47;2.45;;;;;;;4.09;41.56;91486.41;6217312;23;20077;-78
2021/12/04 13:48:34;;;;;;;98.95;33.08;;;;;;;4.12;42.02;91486.66;6217847;23;20021;-77
2021/12/04 13:51:00;;;;;;;45.03;16.70;;;;;;;4.11;42.39;91485.09;6244104;22;20016;-77
2021/12/04 13:53:30;;;;;;;8.98;3.85;;;;;;;4.11;42.57;91485.09;6216776;23;20020;-77
2021/12/04 13:56:02;;;;;;;7.03;3.15;;;;;;;4.12;44.74;91476.28;6243472;23;20051;-78
2021/12/04 13:58:28;;;;;;;5.43;2.47;;;;;;;4.14;44.29;91476.00;6240319;23;20067;-77
2021/12/04 14:00:53;;;;;;;8.30;2.72;;;;;;;4.21;43.04;91466.13;6234258;22;20441;-77
2021/12/04 14:03:24;;;;;;;5.80;2.38;;;;;;;4.25;42.76;91464.50;6234865;22;20017;-79
2021/12/04 14:05:50;;;;;;;6.38;2.92;;;;;;;4.27;42.29;91462.44;6368400;22;20477;-80
2021/12/04 14:08:16;;;;;;;8.43;2.75;;;;;;;4.31;41.80;91458.25;6369441;22;20022;-78
2021/12/04 14:10:44;;;;;;;4.07;2.00;;;;;;;4.29;37.93;91456.97;6236285;22;20056;-79
2021/12/04 14:13:16;;;;;;;12.25;4.88;;;;;;;3.89;39.05;91459.59;6369598;22;19998;-78
2021/12/04 14:15:44;;;;;;;6.75;2.30;;;;;;;3.76;38.34;91452.47;6367624;22;20454;-77
2021/12/04 14:18:16;;;;;;;7.07;2.67;;;;;;;3.72;39.11;91454.03;6233676;22;20055;-77
2021/12/04 14:20:44;;;;;;;6.03;2.72;;;;;;;3.75;40.59;91456.09;6366981;22;20464;-77
2021/12/04 14:23:11;;;;;;;10.25;3.72;;;;;;;3.79;40.54;91444.16;6367494;22;20064;-77
2021/12/04 14:25:43;;;;;;;14.35;6.45;;;;;;;3.82;41.70;91445.44;6367062;22;20068;-77
2021/12/04 14:28:12;;;;;;;25.67;10.07;;;;;;;3.40;41.58;91444.91;6370429;22;20015;-79
2021/12/04 14:30:38;;;;;;;5.45;2.85;;;;;;;3.42;42.56;91444.63;6372335;22;20011;-79
2021/12/04 14:33:07;;;;;;;9.38;4.10;;;;;;;3.42;42.96;91435.03;6370687;22;20048;-79
2021/12/04 14:35:42;;;;;;;5.25;2.28;;;;;;;3.32;43.17;91432.53;6236700;22;20014;-76
2021/12/04 14:38:13;;;;;;;4.68;2.35;;;;;;;3.32;43.46;91429.94;6369942;22;20557;-79
2021/12/04 14:40:43;;;;;;;7.25;3.00;;;;;;;3.32;43.59;91417.78;6369599;22;20007;-79
2021/12/04 14:43:10;;;;;;;7.45;2.85;;;;;;;3.34;44.21;91422.69;6368379;22;20008;-79
2021/12/04 14:45:40;;;;;;;4.10;1.90;;;;;;;3.30;44.03;91419.09;6371898;22;20014;-79
2021/12/04 14:48:09;;;;;;;5.80;2.70;;;;;;;3.29;43.14;91422.72;6240416;22;20002;-79
2021/12/04 14:50:41;;;;;;;9.45;3.75;;;;;;;3.27;43.33;91420.41;6374857;22;20024;-78
2021/12/04 14:53:12;;;;;;;7.72;3.60;;;;;;;3.26;43.73;91418.06;6376718;22;20017;-79
2021/12/04 14:55:43;;;;;;;6.30;2.72;;;;;;;3.28;43.67;91416.00;6377855;22;20010;-78
2021/12/04 14:58:13;;;;;;;5.28;2.50;;;;;;;3.31;43.62;91418.03;6376983;22;20036;-78
2021/12/04 15:00:44;;;;;;;5.85;2.45;;;;;;;3.15;42.63;91411.41;6229031;22;20052;-76
2021/12/04 15:03:20;;;;;;;5.65;2.28;;;;;;;2.95;43.34;91401.94;6243125;23;20039;-78
2021/12/04 15:05:53;;;;;;;5.97;2.40;;;;;;;2.84;43.25;91407.16;6243179;23;20016;-78
2021/12/04 15:08:27;;;;;;;4.13;1.90;;;;;;;2.76;43.25;91417.25;6216958;23;20008;-78
2021/12/04 15:11:00;;;;;;;5.15;2.20;;;;;;;2.70;43.15;91412.13;6242678;22;20004;-78
2021/12/04 15:13:29;;;;;;;8.38;2.50;;;;;;;2.64;43.65;91410.59;6242625;23;20012;-78
2021/12/04 15:16:03;;;;;;;4.50;2.28;;;;;;;2.61;43.58;91410.31;6216808;23;20011;-78
2021/12/04 15:18:35;;;;;;;4.53;2.40;;;;;;;2.54;43.95;91415.78;6242565;23;20057;-78
2021/12/04 15:21:14;;;;;;;5.43;2.33;;;;;;;2.48;45.11;91420.19;6240756;22;20009;-78
2021/12/04 15:23:41;;;;;;;8.32;3.50;;;;;;;2.45;47.32;91412.19;6241672;23;20362;-79
2021/12/04 15:26:15;;;;;;;10.63;5.38;;;;;;;2.40;48.83;91427.69;6245578;23;20000;-80
2021/12/04 15:28:52;;;;;;;46.65;21.67;;;;;;;2.27;44.12;91432.38;6243783;23;20012;-79
2021/12/04 15:31:20;;;;;;;16.42;8.57;;;;;;;2.33;41.32;91433.13;6243315;22;20087;-78
2021/12/04 15:33:50;;;;;;;12.85;5.80;;;;;;;2.22;42.05;91429.78;6242606;23;20011;-80
2021/12/04 15:36:27;;;;;;;6.93;2.85;;;;;;;2.13;42.63;91433.94;6245537;23;20015;-78
2021/12/04 15:38:56;;;;;;;3.65;1.90;;;;;;;2.06;42.42;91418.69;6216340;23;20039;-78
2021/12/04 15:46:48;;;;;;;4.90;2.13;;;;;;;1.97;39.45;91404.00;6244036;23;20018;-79
2021/12/04 15:54:48;;;;;;;6.30;2.75;;;;;;;1.86;47.67;91411.75;6239474;22;20023;-77
2021/12/04 15:57:19;;;;;;;6.75;2.72;;;;;;;1.78;46.80;91416.63;6239620;23;20067;-77
2021/12/04 15:59:47;;;;;;;6.47;2.72;;;;;;;1.70;47.74;91420.53;6238982;23;20012;-77
2021/12/04 16:02:15;;;;;;;6.10;3.25;;;;;;;1.65;48.95;91410.22;6239742;22;20020;-78
2021/12/04 16:04:42;;;;;;;9.75;3.55;;;;;;;1.59;48.83;91409.41;6239241;23;20008;-76
2021/12/04 16:07:07;;;;;;;9.70;2.60;;;;;;;1.55;47.67;91403.22;6239690;23;20016;-77
2021/12/04 16:09:39;;;;;;;4.35;2.08;;;;;;;1.51;46.80;91396.25;6240075;23;20419;-77
2021/12/04 16:12:08;;;;;;;5.32;2.42;;;;;;;1.51;46.60;91388.50;6238138;22;20418;-77
2021/12/04 16:14:41;;;;;;;7.38;2.95;;;;;;;1.46;47.99;91389.28;6239300;23;19993;-77
2021/12/04 16:17:09;;;;;;;27.70;7.57;;;;;;;1.42;49.11;91394.19;6239318;23;20013;-76
2021/12/04 16:19:37;;;;;;;14.45;6.32;;;;;;;1.38;49.15;91397.56;6186550;23;20008;-76
2021/12/04 16:22:08;;;;;;;17.67;7.13;;;;;;;1.35;48.49;91393.69;6237950;22;20036;-77
2021/12/04 16:24:42;;;;;;;11.02;4.25;;;;;;;1.25;49.02;91378.94;6238380;23;20050;-76
2021/12/04 16:27:30;;;;;;;10.30;3.97;;;;;;;1.17;49.85;91363.22;6238620;23;20018;-76
2021/12/04 16:30:09;;;;;;;6.80;2.33;;;;;;;1.12;49.14;91361.41;6237791;23;20008;-76
2021/12/04 16:32:51;;;;;;;5.45;2.60;;;;;;;1.10;47.52;91360.09;6238377;22;20090;-76
2021/12/04 16:38:00;;;;;;;7.10;2.60;;;;;;;1.04;48.03;91359.34;6238162;23;20039;-76
2021/12/04 16:40:30;;;;;;;14.18;3.35;;;;;;;0.98;48.24;91373.25;6238173;22;20317;-76
2021/12/04 16:43:12;;;;;;;10.75;5.00;;;;;;;0.94;48.17;91388.41;6237432;23;20008;-76
2021/12/04 16:45:42;;;;;;;10.35;4.35;;;;;;;0.88;49.34;91374.00;6236744;23;20446;-76
2021/12/04 16:48:11;;;;;;;19.25;6.43;;;;;;;0.86;49.31;91375.25;6238687;23;20008;-76
2021/12/04 16:56:27;;;;;;;13.63;5.35;;;;;;;0.75;49.96;91366.75;6241305;22;20012;-76
2021/12/04 16:58:56;;;;;;;17.70;7.28;;;;;;;0.68;50.03;91363.63;6240552;23;20075;-77
2021/12/04 17:01:21;;;;;;;14.65;5.30;;;;;;;0.62;50.59;91366.16;6240132;22;20024;-77
2021/12/04 17:03:49;;;;;;;12.57;4.55;;;;;;;0.60;50.50;91364.88;6239979;23;20378;-77
2021/12/04 17:06:16;;;;;;;7.10;4.05;;;;;;;0.61;49.77;91364.63;6212664;23;20072;-77
2021/12/04 17:08:42;;;;;;;12.10;4.72;;;;;;;0.60;49.90;91359.72;6189013;23;20440;-77
2021/12/04 17:11:27;;;;;;;18.40;8.52;;;;;;;0.65;49.83;91364.13;6240220;22;20018;-78
2021/12/04 17:13:52;;;;;;;14.70;5.80;;;;;;;0.65;49.69;91364.13;6214134;22;20012;-77
2021/12/04 17:16:37;;;;;;;9.98;5.07;;;;;;;0.69;48.70;91378.06;6212848;23;20052;-77
2021/12/04 17:19:08;;;;;;;8.63;3.90;;;;;;;0.67;48.64;91373.13;6215428;23;20022;-78
2021/12/04 17:21:37;;;;;;;8.80;3.87;;;;;;;0.69;48.99;91372.91;6241391;22;20495;-76
2021/12/04 17:24:06;;;;;;;12.88;3.95;;;;;;;0.69;49.12;91370.31;6241352;23;20045;-77
2021/12/04 17:26:32;;;;;;;9.25;3.95;;;;;;;0.69;49.56;91365.94;6239711;23;20091;-78
2021/12/04 17:28:58;;;;;;;10.02;4.93;;;;;;;0.70;50.03;91362.34;6240452;23;20008;-78
2021/12/04 17:31:25;;;;;;;16.05;7.88;;;;;;;0.72;50.84;91369.81;6239024;22;20445;-77
2021/12/04 17:33:55;;;;;;;12.43;5.35;;;;;;;0.72;50.12;91369.81;6239877;23;20004;-76
2021/12/04 17:36:22;;;;;;;40.42;12.20;;;;;;;0.83;49.70;91368.81;6211944;23;20024;-76
2021/12/04 17:38:48;;;;;;;26.67;9.30;;;;;;;0.77;49.43;91368.03;6238301;23;20003;-77
2021/12/04 17:41:16;;;;;;;22.80;9.40;;;;;;;0.80;49.65;91366.75;6239607;22;20012;-76
2021/12/04 17:43:46;;;;;;;32.78;9.00;;;;;;;0.79;51.29;91376.28;6241934;23;19996;-77
2021/12/04 17:46:13;;;;;;;13.68;5.70;;;;;;;0.80;52.47;91374.47;6244112;23;20061;-77
2021/12/04 17:48:39;;;;;;;8.70;4.18;;;;;;;0.78;50.92;91367.00;6241583;23;19996;-76
2021/12/04 17:51:06;;;;;;;13.55;6.13;;;;;;;0.79;50.71;91365.22;6241984;22;20008;-76
2021/12/04 17:53:38;;;;;;;14.15;5.78;;;;;;;0.80;50.72;91361.59;6242007;23;20034;-76
2021/12/04 17:56:05;;;;;;;10.32;5.22;;;;;;;0.80;50.65;91372.66;6214618;23;20041;-77
2021/12/04 17:58:32;;;;;;;16.20;5.38;;;;;;;0.79;51.06;91365.97;6242158;23;20004;-76
2021/12/04 18:01:02;;;;;;;14.48;6.40;;;;;;;0.82;50.81;91367.28;6240629;22;20103;-77
2021/12/04 18:03:31;;;;;;;13.90;5.75;;;;;;;0.82;51.89;91364.69;6241638;23;20008;-77
2021/12/04 18:06:00;;;;;;;16.17;5.65;;;;;;;0.83;52.33;91371.38;6190546;22;20394;-76
2021/12/04 18:08:26;;;;;;;11.40;5.72;;;;;;;0.81;52.71;91373.44;6215060;23;20450;-76
2021/12/04 18:10:55;;;;;;;14.00;5.90;;;;;;;0.82;52.04;91367.28;6189425;22;20087;-76
2021/12/04 18:13:24;;;;;;;22.30;7.88;;;;;;;0.81;53.12;91363.13;6214691;23;20061;-77
2021/12/04 18:16:03;;;;;;;11.18;6.28;;;;;;;0.82;53.14;91360.31;6214400;23;20102;-77
2021/12/04 18:18:31;;;;;;;12.02;5.75;;;;;;;0.82;54.14;91349.25;6214131;23;20044;-77
2021/12/04 18:21:00;;;;;;;11.68;4.82;;;;;;;0.81;54.92;91345.09;6240224;22;20008;-76
2021/12/04 18:23:27;;;;;;;9.70;4.75;;;;;;;0.81;54.99;91342.53;6213796;23;20088;-76
2021/12/04 18:25:53;;;;;;;10.35;4.78;;;;;;;0.78;55.15;91345.63;6213494;22;20004;-76
2021/12/04 18:28:23;;;;;;;10.20;5.07;;;;;;;0.79;55.36;91354.91;6189549;23;20016;-77
2021/12/04 18:30:51;;;;;;;15.45;7.00;;;;;;;0.77;56.02;91356.97;6241284;22;20327;-76
2021/12/04 18:33:22;;;;;;;13.45;5.80;;;;;;;0.76;55.86;91360.56;6240586;23;20008;-77
2021/12/04 18:35:49;;;;;;;17.30;7.22;;;;;;;0.77;56.38;91362.13;6241145;23;20012;-77
2021/12/04 18:38:14;;;;;;;14.90;7.07;;;;;;;0.75;56.48;91353.88;6214956;23;20004;-77
2021/12/04 18:40:42;;;;;;;17.05;7.32;;;;;;;0.74;56.26;91355.63;6240842;22;20070;-76
2021/12/04 18:43:18;;;;;;;17.73;6.75;;;;;;;0.73;56.20;91361.06;6240534;23;20321;-76
2021/12/04 18:45:45;;;;;;;22.92;7.15;;;;;;;0.73;56.93;91355.91;6239884;23;20016;-76
2021/12/04 18:48:31;;;;;;;22.65;8.48;;;;;;;0.70;56.60;91356.41;6214627;23;20023;-76
2021/12/04 18:50:58;;;;;;;13.40;6.30;;;;;;;0.70;55.60;91348.69;6239776;22;20040;-76
2021/12/04 18:53:24;;;;;;;10.98;5.95;;;;;;;0.69;56.21;91352.28;6212998;23;20004;-76
2021/12/04 18:55:51;;;;;;;13.95;6.45;;;;;;;0.69;56.76;91349.72;6216223;23;20020;-77
2021/12/04 18:58:16;;;;;;;12.60;6.50;;;;;;;0.69;57.00;91349.72;6212811;23;20324;-76
2021/12/04 19:00:43;;;;;;;17.23;7.90;;;;;;;0.69;56.80;91353.06;6239206;22;20008;-76
2021/12/04 19:03:10;;;;;;;15.60;7.90;;;;;;;0.70;57.38;91346.09;6238866;23;20012;-76
2021/12/04 19:05:42;;;;;;;10.43;5.60;;;;;;;0.69;56.70;91342.00;6239656;23;20016;-76
2021/12/04 19:08:08;;;;;;;15.15;6.18;;;;;;;0.67;54.81;91347.38;6239689;23;20060;-76
2021/12/04 19:10:34;;;;;;;8.10;3.90;;;;;;;0.68;53.41;91350.75;6238731;22;20007;-75
2021/12/04 19:13:03;;;;;;;11.90;5.38;;;;;;;0.69;53.70;91355.63;6239698;23;20016;-76
2021/12/04 19:15:29;;;;;;;14.55;5.97;;;;;;;0.70;53.37;91340.94;6239654;23;20394;-76
2021/12/04 19:17:55;;;;;;;12.88;6.25;;;;;;;0.74;52.63;91337.59;6213149;23;20016;-76
2021/12/04 19:20:23;;;;;;;15.60;6.00;;;;;;;0.75;52.43;91346.91;6239678;22;20392;-76
2021/12/04 19:22:49;;;;;;;12.32;5.75;;;;;;;0.74;54.18;91352.31;6213025;23;20012;-76
2021/12/04 19:25:18;;;;;;;11.48;4.85;;;;;;;0.70;54.77;91356.41;6188075;23;20004;-76
2021/12/04 19:27:44;;;;;;;8.02;4.07;;;;;;;0.68;54.21;91346.38;6187950;22;20363;-76
2021/12/04 19:30:19;;;;;;;15.57;5.80;;;;;;;0.68;54.39;91348.94;6239502;23;20043;-76
2021/12/04 19:32:51;;;;;;;16.15;8.30;;;;;;;0.67;53.53;91344.81;6240164;23;20012;-76
2021/12/04 19:35:40;;;;;;;15.65;6.70;;;;;;;0.68;54.03;91337.88;6214576;23;20339;-76
2021/12/04 19:49:27;;;;;;;8.25;4.38;;;;;;;0.64;55.94;91316.22;6239745;22;20502;-77
2021/12/04 19:51:48;;;;;;;10.23;4.57;;;;;;;0.65;56.14;91315.94;6239535;22;20222;-77
2021/12/04 19:56:53;;;;;;;7.72;4.00;;;;;;;0.64;53.95;91295.63;6239435;23;20084;-77
2021/12/04 19:59:24;;;;;;;10.80;4.32;;;;;;;0.65;53.45;91307.47;6240022;23;20016;-77
2021/12/04 20:02:11;;;;;;;7.32;3.00;;;;;;;0.61;54.96;91310.56;6239160;22;20453;-76
2021/12/04 20:05:01;;;;;;;8.48;3.50;;;;;;;0.58;54.60;91313.63;6239655;23;20008;-76
2021/12/04 20:13:32;;;;;;;11.75;5.32;;;;;;;0.54;53.84;91301.50;6239525;22;20396;-76
2021/12/04 20:15:55;;;;;;;12.43;4.75;;;;;;;0.60;55.31;91306.41;6239208;23;20049;-76
2021/12/04 20:18:21;;;;;;;11.73;5.00;;;;;;;0.48;54.67;91307.69;6239454;22;20000;-76
2021/12/04 20:20:55;;;;;;;12.82;5.45;;;;;;;0.39;55.24;91303.00;6239191;22;20410;-76
2021/12/04 20:23:24;;;;;;;12.60;5.50;;;;;;;0.31;55.60;91302.72;6212281;23;20027;-76
2021/12/04 20:26:05;;;;;;;11.25;5.40;;;;;;;0.20;56.28;91302.69;6240341;23;20015;-76
2021/12/04 20:37:19;;;;;;;30.88;10.60;;;;;;;-0.01;58.38;91313.91;6239189;23;19978;-76
2021/12/04 21:06:56;;;;;;;20.15;6.05;;;;;;;-0.07;57.13;91294.31;6267485;22;20473;-76
2021/12/04 21:50:40;;;;;;;10.68;3.42;;;;;;;0.02;55.03;91305.69;6191635;22;20095;-76
2021/12/04 21:53:09;;;;;;;5.55;2.70;;;;;;;0.14;51.06;91308.84;6240275;23;19996;-75
2021/12/04 21:58:47;;;;;;;6.03;3.15;;;;;;;0.26;53.13;91305.28;6189241;23;20087;-75
2021/12/04 22:11:39;;;;;;;8.00;3.42;;;;;;;0.10;57.90;91310.38;6239769;22;20440;-76
2021/12/04 22:16:53;;;;;;;9.07;3.83;;;;;;;0.10;57.96;91296.72;6239501;23;20020;-76
